Details From ENAL - Alesund lufthavn - Vigra
To ENBR - Bergen Lufthavn Flesland
Flight Number -
Tags generated
Created
Modified
Stats Distance 139 nm / 257 km
Max Altitude 18,500 ft / 5,639 m
Waypoints 4
Social Downloads 9
Likes 0
Share VATSIM

Download

Looking for another format? Having issues loading an existing format? Contact us
Advertisement - Login to hide

Notes

Basic altitude profile: - Ascent Rate: 2000ft/min - Ascent Speed: 250kts - Cruise Altitude: 1000ft - Cruise Speed: 320kts - Descent Rate: 1500ft/min - Descent Speed: 250kts Options: - Use NATs: yes - Use PACOTS: yes - Use low airways: yes - Use high airways: yes

Route

ENAL AMKAR TB1 FLE ENBR

ID Type Via Altitude Latitude Longitude Leg Dist Tot Dist Heading (true) Name
O ENAL APT - 0 ft / 0 m 62.56037˚ 6.11016˚ - 0 nm - Alesund lufthavn - Vigra
AMKAR FIX - 12,300 ft / 3,749 m 62.00000˚ 5.82556˚ 34 nm 34 nm 193° / 193° -
FLE VOR TB1 (AWY-LO) 18,500 ft / 5,639 m 60.30004˚ 5.21359˚ 103 nm 138 nm 190° / 190° -
O ENBR APT - 0 ft / 0 m 60.29339˚ 5.21814˚ 0 nm 138 nm 161° / 161° Bergen Lufthavn Flesland

Altitude Profile

Advertisement - Login to hide

ENAL

Details ICAO ENAL (AES)
Name Alesund lufthavn - Vigra
Region Norway
Timezone Europe/Oslo (UTC+2.0)
Stats Elevation 69 ft / 21 m (AMSL)
Location 62.560371° 6.110165°
Runways 1
Magnetic Variation 1.247° E

METAR

ENAL 240550Z VRB03KT 9000 OVC006 09/09 Q1028

Decode

TAF

Not found

Departure Runways

ID Width Length Bearing (true) Bearing (mag) Surface Threshold Offset Overrun Length
07 148 ft / 45 m 7,563 ft / 2,305 m 64.61° 63.36° Asphalt 492 ft / 150 m 0 ft / 0 m
25 148 ft / 45 m 7,563 ft / 2,305 m 244.65° 243.40° Asphalt 758 ft / 231 m 0 ft / 0 m

ENBR

Details ICAO ENBR (BGO)
Name Bergen Lufthavn Flesland
Region Norway
Timezone Europe/Oslo (UTC+2.0)
Stats Elevation 165 ft / 50 m (AMSL)
Location 60.293388° 5.218140°
Runways 1
Magnetic Variation 0.920° E

METAR

ENBR 240550Z 21006KT 180V250 9999 FEW008 BKN012 09/09 Q1029 TEMPO BKN015 RMK WIND 1200FT 15006KT

Decode

TAF

TAF ENBR 240500Z 2406/2506 23005KT 9999 BKN010 PROB30 2406/2408 BKN008 BECMG 2408/2411 SCT010 PROB40 2410/2418 34010KT

Decode

Destination Runways

ID Width Length Bearing (true) Bearing (mag) Surface Threshold Offset Overrun Length
17 148 ft / 45 m 9,793 ft / 2,985 m 170.56° 169.64° Asphalt 886 ft / 270 m 0 ft / 0 m
35 148 ft / 45 m 9,793 ft / 2,985 m 350.57° 349.65° Asphalt 886 ft / 270 m 0 ft / 0 m

Approach Navaids

Runway Type Ident Frequency Range Bearing (true) Bearing (mag) Slope Elevation
17 Localiser BR 109.90 MHz 18 nm / 33 km 170.56° 169.64° - 165 ft / 50 m (AMSL)
17 Glidescope BR 109.90 MHz 10 nm / 19 km 170.56° 169.64° 3.10° 165 ft / 50 m (AMSL)
35 Localiser BG 110.50 MHz 18 nm / 33 km 350.55° 349.63° - 165 ft / 50 m (AMSL)
35 Glidescope BG 110.50 MHz 10 nm / 19 km 350.56° 349.64° 3.00° 165 ft / 50 m (AMSL)

Popular Alternatives